Decoded Metar for OIBJ ( in _UNIDENTIFIED) (IATA:N/A) | Meteo·Mobile Aviation Weather
aviador You're here:

OIBJ Decoded Metar

in _UNIDENTIFIED
Report Time2019-01-19 06:00:00
UTC Time2019-01-19 06:12:26
Flight Rules vfr VFR
Wind320° at 04 kt
W.Decomp.*RWY 29: 3.5 kt HW 1.9 kt RCW
W.Rank320° ranks 8
Current wind is below 320° avg. (9.7)
Visibility9999 m
Phenomena:N/A
Clouds:N/A
Expected CloudBase > 3,200 ft AGL from Temp-Dew spread
CeilingNone
Temp10°C
Dew Point02°C (58% RH)
AAT6.9°C
QNH1020 hPa
Raw Report
METAR OIBJ 190600Z 32004KT CAVOK 10/02 Q1020=

Extra information for OIBJ:More info

Metar Taf Metar & Taf Last 4 Metars F.Rules Stats Wind Profile Meteogram Temp Stats Metar ALERT Operation Metar Decoded Social comments